sensor_id;sensor_type;location;lat;lon;timestamp;P1;durP1;ratioP1;P2;durP2;ratioP2
11396;SDS011;5754;43.726;7.416;2022-08-11T00:01:04;5.75;;;5.25;;
11396;SDS011;5754;43.726;7.416;2022-08-11T00:03:41;4.93;;;4.53;;
11396;SDS011;5754;43.726;7.416;2022-08-11T00:10:45;6.22;;;4.60;;
11396;SDS011;5754;43.726;7.416;2022-08-11T00:13:34;5.07;;;4.68;;
11396;SDS011;5754;43.726;7.416;2022-08-11T00:16:22;5.32;;;4.93;;
11396;SDS011;5754;43.726;7.416;2022-08-11T00:19:05;5.12;;;4.80;;
11396;SDS011;5754;43.726;7.416;2022-08-11T00:21:41;5.00;;;4.70;;
11396;SDS011;5754;43.726;7.416;2022-08-11T00:24:16;4.57;;;4.28;;
11396;SDS011;5754;43.726;7.416;2022-08-11T00:26:53;4.60;;;4.30;;
11396;SDS011;5754;43.726;7.416;2022-08-11T00:29:29;4.95;;;4.60;;
11396;SDS011;5754;43.726;7.416;2022-08-11T00:32:04;4.85;;;4.45;;
11396;SDS011;5754;43.726;7.416;2022-08-11T00:34:40;5.05;;;4.65;;
11396;SDS011;5754;43.726;7.416;2022-08-11T00:37:18;5.00;;;4.68;;
11396;SDS011;5754;43.726;7.416;2022-08-11T00:39:53;5.05;;;4.45;;
11396;SDS011;5754;43.726;7.416;2022-08-11T00:45:23;5.20;;;4.80;;
11396;SDS011;5754;43.726;7.416;2022-08-11T00:48:24;4.30;;;4.00;;
11396;SDS011;5754;43.726;7.416;2022-08-11T00:55:26;5.05;;;4.60;;
11396;SDS011;5754;43.726;7.416;2022-08-11T01:02:38;5.28;;;4.87;;
11396;SDS011;5754;43.726;7.416;2022-08-11T01:10:49;4.78;;;4.45;;
11396;SDS011;5754;43.726;7.416;2022-08-11T01:13:48;5.25;;;4.85;;
11396;SDS011;5754;43.726;7.416;2022-08-11T01:16:56;5.25;;;4.80;;
11396;SDS011;5754;43.726;7.416;2022-08-11T01:35:05;5.37;;;4.97;;
11396;SDS011;5754;43.726;7.416;2022-08-11T01:44:11;5.25;;;4.85;;
11396;SDS011;5754;43.726;7.416;2022-08-11T02:00:05;5.47;;;5.05;;
11396;SDS011;5754;43.726;7.416;2022-08-11T02:03:31;5.87;;;5.43;;
11396;SDS011;5754;43.726;7.416;2022-08-11T02:07:32;5.62;;;5.25;;
11396;SDS011;5754;43.726;7.416;2022-08-11T02:10:21;6.32;;;5.70;;
11396;SDS011;5754;43.726;7.416;2022-08-11T02:13:32;6.07;;;5.55;;
11396;SDS011;5754;43.726;7.416;2022-08-11T02:16:09;5.90;;;5.50;;
11396;SDS011;5754;43.726;7.416;2022-08-11T02:18:51;5.95;;;5.55;;
11396;SDS011;5754;43.726;7.416;2022-08-11T02:21:59;6.43;;;5.90;;
11396;SDS011;5754;43.726;7.416;2022-08-11T02:25:04;6.45;;;5.97;;
11396;SDS011;5754;43.726;7.416;2022-08-11T02:28:01;6.15;;;5.65;;
11396;SDS011;5754;43.726;7.416;2022-08-11T02:30:50;5.75;;;5.35;;
11396;SDS011;5754;43.726;7.416;2022-08-11T02:36:16;6.05;;;5.50;;
11396;SDS011;5754;43.726;7.416;2022-08-11T02:38:57;6.30;;;5.80;;
11396;SDS011;5754;43.726;7.416;2022-08-11T02:41:56;5.87;;;5.37;;
11396;SDS011;5754;43.726;7.416;2022-08-11T02:46:26;6.57;;;5.57;;
11396;SDS011;5754;43.726;7.416;2022-08-11T02:49:10;6.68;;;5.78;;
11396;SDS011;5754;43.726;7.416;2022-08-11T02:52:06;6.82;;;5.72;;
11396;SDS011;5754;43.726;7.416;2022-08-11T03:35:53;7.45;;;6.95;;
11396;SDS011;5754;43.726;7.416;2022-08-11T03:38:37;7.78;;;7.07;;
11396;SDS011;5754;43.726;7.416;2022-08-11T03:41:39;7.30;;;6.62;;
11396;SDS011;5754;43.726;7.416;2022-08-11T03:47:35;6.80;;;6.25;;
11396;SDS011;5754;43.726;7.416;2022-08-11T03:50:23;7.93;;;6.50;;
11396;SDS011;5754;43.726;7.416;2022-08-11T04:01:47;7.80;;;5.62;;
11396;SDS011;5754;43.726;7.416;2022-08-11T04:07:38;5.82;;;5.40;;
11396;SDS011;5754;43.726;7.416;2022-08-11T04:24:37;6.20;;;5.60;;
11396;SDS011;5754;43.726;7.416;2022-08-11T05:12:48;11.23;;;7.25;;
11396;SDS011;5754;43.726;7.416;2022-08-11T05:15:30;7.93;;;6.97;;
11396;SDS011;5754;43.726;7.416;2022-08-11T05:18:36;8.70;;;7.43;;
11396;SDS011;5754;43.726;7.416;2022-08-11T05:21:34;9.18;;;7.15;;
11396;SDS011;5754;43.726;7.416;2022-08-11T05:27:35;7.45;;;6.62;;
11396;SDS011;5754;43.726;7.416;2022-08-11T05:30:30;6.75;;;6.05;;
11396;SDS011;5754;43.726;7.416;2022-08-11T05:33:35;6.50;;;5.35;;
11396;SDS011;5754;43.726;7.416;2022-08-11T05:36:44;5.72;;;5.20;;
11396;SDS011;5754;43.726;7.416;2022-08-11T05:39:25;8.40;;;5.03;;
11396;SDS011;5754;43.726;7.416;2022-08-11T05:42:20;6.05;;;5.07;;
11396;SDS011;5754;43.726;7.416;2022-08-11T05:45:16;5.25;;;4.78;;
11396;SDS011;5754;43.726;7.416;2022-08-11T05:48:09;5.82;;;5.32;;
11396;SDS011;5754;43.726;7.416;2022-08-11T05:51:03;5.97;;;5.47;;
11396;SDS011;5754;43.726;7.416;2022-08-11T05:53:59;6.07;;;5.47;;
11396;SDS011;5754;43.726;7.416;2022-08-11T05:56:58;6.18;;;5.68;;
11396;SDS011;5754;43.726;7.416;2022-08-11T05:59:34;5.80;;;5.30;;
11396;SDS011;5754;43.726;7.416;2022-08-11T06:02:11;6.22;;;5.62;;
11396;SDS011;5754;43.726;7.416;2022-08-11T06:04:49;6.70;;;5.97;;
11396;SDS011;5754;43.726;7.416;2022-08-11T06:07:32;7.57;;;5.82;;
11396;SDS011;5754;43.726;7.416;2022-08-11T06:10:07;6.90;;;6.30;;
11396;SDS011;5754;43.726;7.416;2022-08-11T06:12:44;6.70;;;5.20;;
11396;SDS011;5754;43.726;7.416;2022-08-11T06:15:19;6.43;;;5.87;;
11396;SDS011;5754;43.726;7.416;2022-08-11T06:17:55;6.62;;;6.03;;
11396;SDS011;5754;43.726;7.416;2022-08-11T06:20:32;7.32;;;5.55;;
11396;SDS011;5754;43.726;7.416;2022-08-11T06:23:20;6.65;;;5.72;;
11396;SDS011;5754;43.726;7.416;2022-08-11T06:25:56;6.20;;;5.60;;
11396;SDS011;5754;43.726;7.416;2022-08-11T06:28:35;5.75;;;5.35;;
11396;SDS011;5754;43.726;7.416;2022-08-11T06:31:12;6.25;;;5.45;;
11396;SDS011;5754;43.726;7.416;2022-08-11T06:33:52;6.87;;;6.15;;
11396;SDS011;5754;43.726;7.416;2022-08-11T06:36:38;8.02;;;5.80;;
11396;SDS011;5754;43.726;7.416;2022-08-11T06:44:39;5.97;;;5.45;;
11396;SDS011;5754;43.726;7.416;2022-08-11T06:47:15;5.85;;;5.03;;
11396;SDS011;5754;43.726;7.416;2022-08-11T06:49:55;8.88;;;5.22;;
11396;SDS011;5754;43.726;7.416;2022-08-11T06:52:51;5.12;;;4.55;;
11396;SDS011;5754;43.726;7.416;2022-08-11T06:55:28;5.90;;;4.43;;
11396;SDS011;5754;43.726;7.416;2022-08-11T06:58:25;5.35;;;4.53;;
11396;SDS011;5754;43.726;7.416;2022-08-11T07:01:28;5.45;;;4.62;;
11396;SDS011;5754;43.726;7.416;2022-08-11T07:04:10;4.97;;;4.47;;
11396;SDS011;5754;43.726;7.416;2022-08-11T07:06:55;5.43;;;4.37;;
11396;SDS011;5754;43.726;7.416;2022-08-11T07:15:43;4.82;;;4.40;;
11396;SDS011;5754;43.726;7.416;2022-08-11T07:18:25;9.05;;;4.90;;
11396;SDS011;5754;43.726;7.416;2022-08-11T07:21:29;6.05;;;4.78;;
11396;SDS011;5754;43.726;7.416;2022-08-11T07:24:24;4.47;;;4.07;;
11396;SDS011;5754;43.726;7.416;2022-08-11T07:27:18;6.30;;;5.18;;
11396;SDS011;5754;43.726;7.416;2022-08-11T07:30:12;6.87;;;4.57;;
11396;SDS011;5754;43.726;7.416;2022-08-11T07:32:54;5.72;;;4.53;;
11396;SDS011;5754;43.726;7.416;2022-08-11T07:35:37;5.75;;;5.10;;
11396;SDS011;5754;43.726;7.416;2022-08-11T07:38:18;5.32;;;4.62;;
11396;SDS011;5754;43.726;7.416;2022-08-11T07:40:57;5.53;;;4.50;;
11396;SDS011;5754;43.726;7.416;2022-08-11T07:43:34;6.22;;;5.10;;
11396;SDS011;5754;43.726;7.416;2022-08-11T07:46:10;7.93;;;5.12;;
11396;SDS011;5754;43.726;7.416;2022-08-11T07:49:05;7.15;;;5.07;;
11396;SDS011;5754;43.726;7.416;2022-08-11T07:51:59;7.75;;;5.30;;
11396;SDS011;5754;43.726;7.416;2022-08-11T07:55:00;6.25;;;4.95;;
11396;SDS011;5754;43.726;7.416;2022-08-11T07:57:36;9.15;;;5.03;;
11396;SDS011;5754;43.726;7.416;2022-08-11T08:00:43;6.37;;;5.05;;
11396;SDS011;5754;43.726;7.416;2022-08-11T08:03:39;6.82;;;4.90;;
11396;SDS011;5754;43.726;7.416;2022-08-11T08:06:35;5.90;;;5.30;;
11396;SDS011;5754;43.726;7.416;2022-08-11T08:09:31;5.65;;;4.90;;
11396;SDS011;5754;43.726;7.416;2022-08-11T08:12:26;7.43;;;5.00;;
11396;SDS011;5754;43.726;7.416;2022-08-11T08:15:22;5.87;;;5.20;;
11396;SDS011;5754;43.726;7.416;2022-08-11T08:18:16;6.22;;;5.40;;
11396;SDS011;5754;43.726;7.416;2022-08-11T08:20:54;5.97;;;4.93;;
11396;SDS011;5754;43.726;7.416;2022-08-11T08:23:46;8.50;;;5.57;;
11396;SDS011;5754;43.726;7.416;2022-08-11T08:26:23;6.53;;;5.70;;
11396;SDS011;5754;43.726;7.416;2022-08-11T08:29:17;6.20;;;5.22;;
11396;SDS011;5754;43.726;7.416;2022-08-11T08:32:13;6.30;;;5.45;;
11396;SDS011;5754;43.726;7.416;2022-08-11T08:34:48;6.20;;;5.28;;
11396;SDS011;5754;43.726;7.416;2022-08-11T08:37:25;7.87;;;5.95;;
11396;SDS011;5754;43.726;7.416;2022-08-11T08:40:06;8.07;;;5.70;;
11396;SDS011;5754;43.726;7.416;2022-08-11T08:42:47;6.37;;;5.78;;
11396;SDS011;5754;43.726;7.416;2022-08-11T08:45:26;5.97;;;5.47;;
11396;SDS011;5754;43.726;7.416;2022-08-11T08:48:10;5.87;;;5.25;;
11396;SDS011;5754;43.726;7.416;2022-08-11T08:50:52;6.78;;;5.40;;
11396;SDS011;5754;43.726;7.416;2022-08-11T08:53:50;6.00;;;4.97;;
11396;SDS011;5754;43.726;7.416;2022-08-11T08:56:26;6.25;;;5.57;;
11396;SDS011;5754;43.726;7.416;2022-08-11T08:59:04;6.68;;;5.97;;
11396;SDS011;5754;43.726;7.416;2022-08-11T09:01:41;6.47;;;5.85;;
11396;SDS011;5754;43.726;7.416;2022-08-11T09:04:20;8.48;;;5.57;;
11396;SDS011;5754;43.726;7.416;2022-08-11T09:07:03;6.12;;;5.62;;
11396;SDS011;5754;43.726;7.416;2022-08-11T09:09:46;8.65;;;5.47;;
11396;SDS011;5754;43.726;7.416;2022-08-11T09:12:25;5.20;;;4.70;;
11396;SDS011;5754;43.726;7.416;2022-08-11T09:14:59;5.32;;;4.57;;
11396;SDS011;5754;43.726;7.416;2022-08-11T09:17:45;7.18;;;4.95;;
11396;SDS011;5754;43.726;7.416;2022-08-11T09:20:21;5.18;;;4.70;;
11396;SDS011;5754;43.726;7.416;2022-08-11T09:23:00;5.85;;;5.35;;
11396;SDS011;5754;43.726;7.416;2022-08-11T09:26:27;6.32;;;5.53;;
11396;SDS011;5754;43.726;7.416;2022-08-11T09:29:22;5.87;;;5.37;;
11396;SDS011;5754;43.726;7.416;2022-08-11T09:31:56;6.20;;;5.32;;
11396;SDS011;5754;43.726;7.416;2022-08-11T09:34:32;5.75;;;5.32;;
11396;SDS011;5754;43.726;7.416;2022-08-11T09:37:10;8.57;;;5.47;;
11396;SDS011;5754;43.726;7.416;2022-08-11T09:40:04;14.20;;;5.87;;
11396;SDS011;5754;43.726;7.416;2022-08-11T09:43:02;6.37;;;5.53;;
11396;SDS011;5754;43.726;7.416;2022-08-11T09:45:57;7.95;;;5.10;;
11396;SDS011;5754;43.726;7.416;2022-08-11T09:48:36;7.78;;;5.82;;
11396;SDS011;5754;43.726;7.416;2022-08-11T09:51:15;6.20;;;5.35;;
11396;SDS011;5754;43.726;7.416;2022-08-11T09:53:51;8.27;;;5.22;;
11396;SDS011;5754;43.726;7.416;2022-08-11T09:56:27;5.50;;;5.00;;
11396;SDS011;5754;43.726;7.416;2022-08-11T09:59:21;8.57;;;5.22;;
11396;SDS011;5754;43.726;7.416;2022-08-11T10:02:02;5.90;;;5.40;;
11396;SDS011;5754;43.726;7.416;2022-08-11T10:04:40;8.63;;;5.78;;
11396;SDS011;5754;43.726;7.416;2022-08-11T10:07:18;6.47;;;5.37;;
11396;SDS011;5754;43.726;7.416;2022-08-11T10:10:11;9.02;;;5.40;;
11396;SDS011;5754;43.726;7.416;2022-08-11T10:12:46;8.63;;;5.85;;
11396;SDS011;5754;43.726;7.416;2022-08-11T10:15:27;10.90;;;5.10;;
11396;SDS011;5754;43.726;7.416;2022-08-11T10:18:08;10.48;;;5.18;;
11396;SDS011;5754;43.726;7.416;2022-08-11T10:21:07;6.68;;;5.30;;
11396;SDS011;5754;43.726;7.416;2022-08-11T10:23:46;7.95;;;7.22;;
11396;SDS011;5754;43.726;7.416;2022-08-11T10:26:38;10.93;;;5.70;;
11396;SDS011;5754;43.726;7.416;2022-08-11T10:29:31;7.45;;;4.90;;
11396;SDS011;5754;43.726;7.416;2022-08-11T10:32:26;7.20;;;5.80;;
11396;SDS011;5754;43.726;7.416;2022-08-11T10:35:23;6.87;;;4.28;;
11396;SDS011;5754;43.726;7.416;2022-08-11T10:38:03;7.68;;;4.22;;
11396;SDS011;5754;43.726;7.416;2022-08-11T10:40:39;7.40;;;5.00;;
11396;SDS011;5754;43.726;7.416;2022-08-11T10:43:13;4.87;;;4.47;;
11396;SDS011;5754;43.726;7.416;2022-08-11T10:45:48;6.85;;;5.20;;
11396;SDS011;5754;43.726;7.416;2022-08-11T10:48:44;8.55;;;6.87;;
11396;SDS011;5754;43.726;7.416;2022-08-11T10:51:19;5.40;;;4.55;;
11396;SDS011;5754;43.726;7.416;2022-08-11T10:53:58;5.90;;;4.35;;
11396;SDS011;5754;43.726;7.416;2022-08-11T10:56:56;5.87;;;4.20;;
11396;SDS011;5754;43.726;7.416;2022-08-11T10:59:51;6.32;;;4.12;;
11396;SDS011;5754;43.726;7.416;2022-08-11T11:02:28;8.18;;;4.62;;
11396;SDS011;5754;43.726;7.416;2022-08-11T11:05:13;5.05;;;4.43;;
11396;SDS011;5754;43.726;7.416;2022-08-11T11:08:12;5.07;;;3.97;;
11396;SDS011;5754;43.726;7.416;2022-08-11T11:11:11;4.62;;;3.60;;
11396;SDS011;5754;43.726;7.416;2022-08-11T11:13:50;4.20;;;3.80;;
11396;SDS011;5754;43.726;7.416;2022-08-11T11:16:44;5.60;;;4.07;;
11396;SDS011;5754;43.726;7.416;2022-08-11T11:19:39;6.00;;;4.30;;
11396;SDS011;5754;43.726;7.416;2022-08-11T11:22:21;6.43;;;4.15;;
11396;SDS011;5754;43.726;7.416;2022-08-11T11:26:24;7.62;;;4.18;;
11396;SDS011;5754;43.726;7.416;2022-08-11T11:29:25;6.95;;;4.10;;
11396;SDS011;5754;43.726;7.416;2022-08-11T11:32:20;8.63;;;4.20;;
11396;SDS011;5754;43.726;7.416;2022-08-11T11:40:43;7.62;;;4.22;;
11396;SDS011;5754;43.726;7.416;2022-08-11T11:43:57;6.50;;;3.65;;
11396;SDS011;5754;43.726;7.416;2022-08-11T11:46:32;5.95;;;3.60;;
11396;SDS011;5754;43.726;7.416;2022-08-11T11:49:12;6.28;;;3.78;;
11396;SDS011;5754;43.726;7.416;2022-08-11T11:51:50;6.43;;;3.83;;
11396;SDS011;5754;43.726;7.416;2022-08-11T11:54:30;9.13;;;4.03;;
11396;SDS011;5754;43.726;7.416;2022-08-11T11:57:06;5.62;;;3.85;;
11396;SDS011;5754;43.726;7.416;2022-08-11T12:00:05;8.05;;;3.53;;
11396;SDS011;5754;43.726;7.416;2022-08-11T12:03:00;5.25;;;4.47;;
11396;SDS011;5754;43.726;7.416;2022-08-11T12:05:37;8.55;;;3.95;;
11396;SDS011;5754;43.726;7.416;2022-08-11T12:08:14;9.57;;;3.55;;
11396;SDS011;5754;43.726;7.416;2022-08-11T12:10:56;5.93;;;4.25;;
11396;SDS011;5754;43.726;7.416;2022-08-11T12:13:53;4.78;;;3.62;;
11396;SDS011;5754;43.726;7.416;2022-08-11T12:16:29;8.57;;;3.95;;
11396;SDS011;5754;43.726;7.416;2022-08-11T12:19:07;4.10;;;3.67;;
11396;SDS011;5754;43.726;7.416;2022-08-11T12:21:46;5.35;;;3.22;;
11396;SDS011;5754;43.726;7.416;2022-08-11T12:24:40;6.05;;;3.40;;
11396;SDS011;5754;43.726;7.416;2022-08-11T12:27:33;5.75;;;3.22;;
11396;SDS011;5754;43.726;7.416;2022-08-11T12:30:09;7.45;;;3.55;;
11396;SDS011;5754;43.726;7.416;2022-08-11T12:32:45;5.70;;;3.72;;
11396;SDS011;5754;43.726;7.416;2022-08-11T12:35:20;7.95;;;3.85;;
11396;SDS011;5754;43.726;7.416;2022-08-11T12:37:55;7.57;;;3.75;;
11396;SDS011;5754;43.726;7.416;2022-08-11T12:40:37;4.00;;;3.58;;
11396;SDS011;5754;43.726;7.416;2022-08-11T12:44:02;6.80;;;3.72;;
11396;SDS011;5754;43.726;7.416;2022-08-11T12:46:58;3.92;;;3.55;;
11396;SDS011;5754;43.726;7.416;2022-08-11T12:49:35;8.05;;;3.83;;
11396;SDS011;5754;43.726;7.416;2022-08-11T12:52:35;5.65;;;3.42;;
11396;SDS011;5754;43.726;7.416;2022-08-11T12:55:18;5.55;;;3.60;;
11396;SDS011;5754;43.726;7.416;2022-08-11T12:58:17;7.65;;;3.45;;
11396;SDS011;5754;43.726;7.416;2022-08-11T13:00:55;4.18;;;3.70;;
11396;SDS011;5754;43.726;7.416;2022-08-11T13:03:50;4.68;;;3.65;;
11396;SDS011;5754;43.726;7.416;2022-08-11T13:06:43;5.45;;;3.50;;
11396;SDS011;5754;43.726;7.416;2022-08-11T13:09:21;4.85;;;3.47;;
11396;SDS011;5754;43.726;7.416;2022-08-11T13:11:56;4.40;;;3.60;;
11396;SDS011;5754;43.726;7.416;2022-08-11T13:14:50;7.65;;;3.92;;
11396;SDS011;5754;43.726;7.416;2022-08-11T13:17:25;5.28;;;3.80;;
11396;SDS011;5754;43.726;7.416;2022-08-11T13:20:03;5.20;;;3.65;;
11396;SDS011;5754;43.726;7.416;2022-08-11T13:22:41;4.70;;;3.30;;
11396;SDS011;5754;43.726;7.416;2022-08-11T13:25:23;6.12;;;3.75;;
11396;SDS011;5754;43.726;7.416;2022-08-11T13:27:59;4.95;;;3.25;;
11396;SDS011;5754;43.726;7.416;2022-08-11T13:30:38;6.80;;;3.65;;
11396;SDS011;5754;43.726;7.416;2022-08-11T13:33:34;9.60;;;3.70;;
11396;SDS011;5754;43.726;7.416;2022-08-11T13:36:10;6.10;;;3.60;;
11396;SDS011;5754;43.726;7.416;2022-08-11T13:38:46;7.25;;;3.60;;
11396;SDS011;5754;43.726;7.416;2022-08-11T13:41:26;3.85;;;3.50;;
11396;SDS011;5754;43.726;7.416;2022-08-11T13:44:12;6.18;;;3.67;;
11396;SDS011;5754;43.726;7.416;2022-08-11T13:46:48;5.30;;;3.72;;
11396;SDS011;5754;43.726;7.416;2022-08-11T13:49:23;9.90;;;4.40;;
11396;SDS011;5754;43.726;7.416;2022-08-11T13:51:59;4.15;;;3.30;;
11396;SDS011;5754;43.726;7.416;2022-08-11T13:54:35;6.95;;;4.07;;
11396;SDS011;5754;43.726;7.416;2022-08-11T13:57:11;7.95;;;4.03;;
11396;SDS011;5754;43.726;7.416;2022-08-11T13:59:50;9.30;;;3.92;;
11396;SDS011;5754;43.726;7.416;2022-08-11T14:02:27;4.62;;;3.72;;
11396;SDS011;5754;43.726;7.416;2022-08-11T14:05:09;10.02;;;3.90;;
11396;SDS011;5754;43.726;7.416;2022-08-11T14:07:48;6.57;;;4.12;;
11396;SDS011;5754;43.726;7.416;2022-08-11T14:10:25;4.78;;;3.58;;
11396;SDS011;5754;43.726;7.416;2022-08-11T14:13:07;8.45;;;3.67;;
11396;SDS011;5754;43.726;7.416;2022-08-11T14:16:02;7.07;;;4.12;;
11396;SDS011;5754;43.726;7.416;2022-08-11T14:18:39;6.28;;;3.78;;
11396;SDS011;5754;43.726;7.416;2022-08-11T14:21:16;7.62;;;4.15;;
11396;SDS011;5754;43.726;7.416;2022-08-11T14:24:13;9.52;;;4.07;;
11396;SDS011;5754;43.726;7.416;2022-08-11T14:26:52;5.62;;;3.90;;
11396;SDS011;5754;43.726;7.416;2022-08-11T14:29:30;6.22;;;3.92;;
11396;SDS011;5754;43.726;7.416;2022-08-11T14:32:07;7.95;;;4.18;;
11396;SDS011;5754;43.726;7.416;2022-08-11T14:34:43;10.30;;;4.62;;
11396;SDS011;5754;43.726;7.416;2022-08-11T14:37:19;5.47;;;4.15;;
11396;SDS011;5754;43.726;7.416;2022-08-11T14:39:57;4.45;;;3.72;;
11396;SDS011;5754;43.726;7.416;2022-08-11T14:42:38;6.45;;;3.70;;
11396;SDS011;5754;43.726;7.416;2022-08-11T14:45:32;8.48;;;3.78;;
11396;SDS011;5754;43.726;7.416;2022-08-11T14:48:26;5.00;;;3.70;;
11396;SDS011;5754;43.726;7.416;2022-08-11T14:51:00;7.62;;;3.92;;
11396;SDS011;5754;43.726;7.416;2022-08-11T14:53:34;4.28;;;3.78;;
11396;SDS011;5754;43.726;7.416;2022-08-11T14:56:11;6.03;;;4.18;;
11396;SDS011;5754;43.726;7.416;2022-08-11T14:59:05;6.03;;;4.00;;
11396;SDS011;5754;43.726;7.416;2022-08-11T15:01:40;7.50;;;3.95;;
11396;SDS011;5754;43.726;7.416;2022-08-11T15:04:35;4.93;;;3.72;;
11396;SDS011;5754;43.726;7.416;2022-08-11T15:07:10;8.98;;;4.18;;
11396;SDS011;5754;43.726;7.416;2022-08-11T15:09:47;8.45;;;4.30;;
11396;SDS011;5754;43.726;7.416;2022-08-11T15:12:45;5.50;;;4.22;;
11396;SDS011;5754;43.726;7.416;2022-08-11T15:15:21;7.53;;;4.00;;
11396;SDS011;5754;43.726;7.416;2022-08-11T15:18:16;6.78;;;4.03;;
11396;SDS011;5754;43.726;7.416;2022-08-11T15:20:56;7.00;;;3.90;;
11396;SDS011;5754;43.726;7.416;2022-08-11T15:23:51;6.05;;;3.87;;
11396;SDS011;5754;43.726;7.416;2022-08-11T15:26:45;6.62;;;4.18;;
11396;SDS011;5754;43.726;7.416;2022-08-11T15:29:41;7.43;;;4.05;;
11396;SDS011;5754;43.726;7.416;2022-08-11T15:32:36;8.02;;;4.32;;
11396;SDS011;5754;43.726;7.416;2022-08-11T15:35:33;6.72;;;4.32;;
11396;SDS011;5754;43.726;7.416;2022-08-11T15:38:28;4.40;;;3.78;;
11396;SDS011;5754;43.726;7.416;2022-08-11T15:41:08;8.02;;;4.00;;
11396;SDS011;5754;43.726;7.416;2022-08-11T15:44:05;6.82;;;4.18;;
11396;SDS011;5754;43.726;7.416;2022-08-11T15:47:08;5.03;;;4.10;;
11396;SDS011;5754;43.726;7.416;2022-08-11T15:49:44;4.60;;;3.95;;
11396;SDS011;5754;43.726;7.416;2022-08-11T15:52:21;6.82;;;4.00;;
11396;SDS011;5754;43.726;7.416;2022-08-11T15:54:56;9.15;;;3.60;;
11396;SDS011;5754;43.726;7.416;2022-08-11T15:57:35;4.50;;;3.78;;
11396;SDS011;5754;43.726;7.416;2022-08-11T16:00:29;6.10;;;3.85;;
11396;SDS011;5754;43.726;7.416;2022-08-11T16:03:25;5.85;;;4.37;;
11396;SDS011;5754;43.726;7.416;2022-08-11T16:09:03;6.80;;;4.30;;
11396;SDS011;5754;43.726;7.416;2022-08-11T16:11:40;11.68;;;4.93;;
11396;SDS011;5754;43.726;7.416;2022-08-11T16:14:16;8.05;;;4.47;;
11396;SDS011;5754;43.726;7.416;2022-08-11T16:17:13;10.98;;;4.40;;
11396;SDS011;5754;43.726;7.416;2022-08-11T16:19:50;7.18;;;4.40;;
11396;SDS011;5754;43.726;7.416;2022-08-11T16:22:29;5.60;;;3.75;;
11396;SDS011;5754;43.726;7.416;2022-08-11T16:25:16;8.35;;;4.10;;
11396;SDS011;5754;43.726;7.416;2022-08-11T16:28:01;6.50;;;3.83;;
11396;SDS011;5754;43.726;7.416;2022-08-11T16:30:42;7.90;;;4.15;;
11396;SDS011;5754;43.726;7.416;2022-08-11T16:33:19;8.02;;;3.83;;
11396;SDS011;5754;43.726;7.416;2022-08-11T16:35:56;4.85;;;3.75;;
11396;SDS011;5754;43.726;7.416;2022-08-11T16:38:51;6.85;;;3.40;;
11396;SDS011;5754;43.726;7.416;2022-08-11T16:41:26;8.02;;;4.45;;
11396;SDS011;5754;43.726;7.416;2022-08-11T16:44:21;6.18;;;4.15;;
11396;SDS011;5754;43.726;7.416;2022-08-11T16:47:15;5.68;;;3.62;;
11396;SDS011;5754;43.726;7.416;2022-08-11T16:49:52;9.55;;;4.20;;
11396;SDS011;5754;43.726;7.416;2022-08-11T16:52:29;6.20;;;3.85;;
11396;SDS011;5754;43.726;7.416;2022-08-11T16:55:05;8.32;;;4.00;;
11396;SDS011;5754;43.726;7.416;2022-08-11T16:57:43;5.05;;;3.55;;
11396;SDS011;5754;43.726;7.416;2022-08-11T17:00:37;6.93;;;4.00;;
11396;SDS011;5754;43.726;7.416;2022-08-11T17:03:14;5.78;;;3.62;;
11396;SDS011;5754;43.726;7.416;2022-08-11T17:06:09;6.15;;;3.65;;
11396;SDS011;5754;43.726;7.416;2022-08-11T17:09:03;4.55;;;3.58;;
11396;SDS011;5754;43.726;7.416;2022-08-11T17:11:57;5.18;;;3.65;;
11396;SDS011;5754;43.726;7.416;2022-08-11T17:14:52;5.15;;;3.80;;
11396;SDS011;5754;43.726;7.416;2022-08-11T17:17:32;6.22;;;4.00;;
11396;SDS011;5754;43.726;7.416;2022-08-11T17:20:11;6.15;;;3.72;;
11396;SDS011;5754;43.726;7.416;2022-08-11T17:22:52;5.68;;;3.70;;
11396;SDS011;5754;43.726;7.416;2022-08-11T17:25:47;8.15;;;3.90;;
11396;SDS011;5754;43.726;7.416;2022-08-11T17:28:25;4.25;;;3.60;;
11396;SDS011;5754;43.726;7.416;2022-08-11T17:31:01;7.30;;;3.80;;
11396;SDS011;5754;43.726;7.416;2022-08-11T17:33:56;8.20;;;3.75;;
11396;SDS011;5754;43.726;7.416;2022-08-11T17:36:53;6.78;;;3.95;;
11396;SDS011;5754;43.726;7.416;2022-08-11T17:39:28;6.22;;;3.70;;
11396;SDS011;5754;43.726;7.416;2022-08-11T17:42:03;5.00;;;4.12;;
11396;SDS011;5754;43.726;7.416;2022-08-11T17:44:59;4.20;;;3.35;;
11396;SDS011;5754;43.726;7.416;2022-08-11T17:47:54;7.22;;;3.87;;
11396;SDS011;5754;43.726;7.416;2022-08-11T17:58:47;6.55;;;3.60;;
11396;SDS011;5754;43.726;7.416;2022-08-11T18:01:42;4.35;;;3.35;;
11396;SDS011;5754;43.726;7.416;2022-08-11T18:04:16;5.28;;;3.67;;
11396;SDS011;5754;43.726;7.416;2022-08-11T18:06:52;6.25;;;3.62;;
11396;SDS011;5754;43.726;7.416;2022-08-11T18:09:27;6.75;;;3.67;;
11396;SDS011;5754;43.726;7.416;2022-08-11T18:12:21;4.75;;;3.28;;
11396;SDS011;5754;43.726;7.416;2022-08-11T18:15:16;6.25;;;3.58;;
11396;SDS011;5754;43.726;7.416;2022-08-11T18:18:10;8.27;;;3.72;;
11396;SDS011;5754;43.726;7.416;2022-08-11T18:21:04;6.62;;;3.00;;
11396;SDS011;5754;43.726;7.416;2022-08-11T18:24:17;6.12;;;3.50;;
11396;SDS011;5754;43.726;7.416;2022-08-11T18:27:16;3.95;;;3.22;;
11396;SDS011;5754;43.726;7.416;2022-08-11T18:30:13;3.42;;;3.05;;
11396;SDS011;5754;43.726;7.416;2022-08-11T18:33:07;6.80;;;3.47;;
11396;SDS011;5754;43.726;7.416;2022-08-11T18:36:33;5.32;;;3.30;;
11396;SDS011;5754;43.726;7.416;2022-08-11T18:39:28;5.20;;;3.75;;
11396;SDS011;5754;43.726;7.416;2022-08-11T18:42:23;4.45;;;3.50;;
11396;SDS011;5754;43.726;7.416;2022-08-11T18:45:18;5.85;;;3.62;;
11396;SDS011;5754;43.726;7.416;2022-08-11T18:48:14;5.93;;;3.78;;
11396;SDS011;5754;43.726;7.416;2022-08-11T18:51:08;7.47;;;3.83;;
11396;SDS011;5754;43.726;7.416;2022-08-11T18:54:06;5.75;;;3.80;;
11396;SDS011;5754;43.726;7.416;2022-08-11T18:57:01;4.85;;;3.40;;
11396;SDS011;5754;43.726;7.416;2022-08-11T18:59:58;4.78;;;3.40;;
11396;SDS011;5754;43.726;7.416;2022-08-11T19:02:52;3.62;;;3.33;;
11396;SDS011;5754;43.726;7.416;2022-08-11T19:05:50;6.57;;;3.50;;
11396;SDS011;5754;43.726;7.416;2022-08-11T19:08:49;4.25;;;3.85;;
11396;SDS011;5754;43.726;7.416;2022-08-11T19:11:45;6.57;;;3.60;;
11396;SDS011;5754;43.726;7.416;2022-08-11T19:14:40;6.37;;;3.58;;
11396;SDS011;5754;43.726;7.416;2022-08-11T19:17:34;4.68;;;3.50;;
11396;SDS011;5754;43.726;7.416;2022-08-11T19:20:29;3.45;;;3.12;;
11396;SDS011;5754;43.726;7.416;2022-08-11T19:23:30;5.03;;;3.80;;
11396;SDS011;5754;43.726;7.416;2022-08-11T19:26:24;3.85;;;3.50;;
11396;SDS011;5754;43.726;7.416;2022-08-11T19:29:23;6.22;;;3.65;;
11396;SDS011;5754;43.726;7.416;2022-08-11T19:32:19;5.70;;;3.42;;
11396;SDS011;5754;43.726;7.416;2022-08-11T19:35:13;4.45;;;3.72;;
11396;SDS011;5754;43.726;7.416;2022-08-11T19:38:08;4.30;;;3.85;;
11396;SDS011;5754;43.726;7.416;2022-08-11T19:41:03;8.05;;;4.10;;
11396;SDS011;5754;43.726;7.416;2022-08-11T19:43:56;6.43;;;4.20;;
11396;SDS011;5754;43.726;7.416;2022-08-11T19:46:53;4.80;;;3.55;;
11396;SDS011;5754;43.726;7.416;2022-08-11T19:49:47;5.40;;;3.78;;
11396;SDS011;5754;43.726;7.416;2022-08-11T19:52:41;6.95;;;3.75;;
11396;SDS011;5754;43.726;7.416;2022-08-11T19:55:35;6.70;;;3.50;;
11396;SDS011;5754;43.726;7.416;2022-08-11T19:58:32;4.90;;;3.33;;
11396;SDS011;5754;43.726;7.416;2022-08-11T20:01:26;7.70;;;4.50;;
11396;SDS011;5754;43.726;7.416;2022-08-11T20:04:20;7.93;;;4.25;;
11396;SDS011;5754;43.726;7.416;2022-08-11T20:07:13;4.87;;;4.20;;
11396;SDS011;5754;43.726;7.416;2022-08-11T20:10:07;4.90;;;3.85;;
11396;SDS011;5754;43.726;7.416;2022-08-11T20:13:01;7.72;;;4.20;;
11396;SDS011;5754;43.726;7.416;2022-08-11T20:15:55;7.65;;;4.30;;
11396;SDS011;5754;43.726;7.416;2022-08-11T20:18:52;7.90;;;4.03;;
11396;SDS011;5754;43.726;7.416;2022-08-11T20:21:50;5.85;;;3.78;;
11396;SDS011;5754;43.726;7.416;2022-08-11T20:24:44;6.93;;;4.03;;
11396;SDS011;5754;43.726;7.416;2022-08-11T20:27:40;6.78;;;4.30;;
11396;SDS011;5754;43.726;7.416;2022-08-11T20:30:35;8.82;;;4.22;;